sensor_id;sensor_type;location;lat;lon;timestamp;pressure;altitude;pressure_sealevel;temperature;humidity
19150;BME280;9707;49.158;8.632;2024-01-06T00:02:14;99247.78;;;18.71;37.59
19150;BME280;9707;49.158;8.632;2024-01-06T00:04:39;99247.78;;;18.71;37.26
19150;BME280;9707;49.158;8.632;2024-01-06T00:07:04;99245.09;;;18.71;37.05
19150;BME280;9707;49.158;8.632;2024-01-06T00:09:30;99250.47;;;18.71;37.11
19150;BME280;9707;49.158;8.632;2024-01-06T00:11:55;99248.78;;;18.70;36.84
19150;BME280;9707;49.158;8.632;2024-01-06T00:14:20;99254.19;;;18.70;36.83
19150;BME280;9707;49.158;8.632;2024-01-06T00:16:45;99241.69;;;18.69;37.51
19150;BME280;9707;49.158;8.632;2024-01-06T00:19:11;99249.78;;;18.69;37.17
19150;BME280;9707;49.158;8.632;2024-01-06T00:21:36;99237.25;;;18.68;36.84
19150;BME280;9707;49.158;8.632;2024-01-06T00:24:01;99245.34;;;18.68;36.73
19150;BME280;9707;49.158;8.632;2024-01-06T00:26:26;99245.34;;;18.68;36.63
19150;BME280;9707;49.158;8.632;2024-01-06T00:28:52;99249.03;;;18.67;36.89
19150;BME280;9707;49.158;8.632;2024-01-06T00:31:17;99245.50;;;18.66;36.96
19150;BME280;9707;49.158;8.632;2024-01-06T00:33:43;99249.03;;;18.67;36.94
19150;BME280;9707;49.158;8.632;2024-01-06T00:36:08;99247.34;;;18.66;36.82
19150;BME280;9707;49.158;8.632;2024-01-06T00:38:34;99244.66;;;18.66;36.77
19150;BME280;9707;49.158;8.632;2024-01-06T00:41:03;99247.34;;;18.66;36.74
19150;BME280;9707;49.158;8.632;2024-01-06T00:43:28;99247.34;;;18.66;36.88
19150;BME280;9707;49.158;8.632;2024-01-06T00:45:53;99242.94;;;18.65;36.91
19150;BME280;9707;49.158;8.632;2024-01-06T00:48:19;99251.03;;;18.65;36.56
19150;BME280;9707;49.158;8.632;2024-01-06T00:50:44;99247.34;;;18.66;36.98
19150;BME280;9707;49.158;8.632;2024-01-06T00:53:09;99259.00;;;18.66;37.06
19150;BME280;9707;49.158;8.632;2024-01-06T00:55:35;99251.03;;;18.65;37.01
19150;BME280;9707;49.158;8.632;2024-01-06T00:58:00;99251.03;;;18.65;37.75
19150;BME280;9707;49.158;8.632;2024-01-06T01:00:25;99251.88;;;18.65;37.77
19150;BME280;9707;49.158;8.632;2024-01-06T01:02:52;99251.03;;;18.65;37.43
19150;BME280;9707;49.158;8.632;2024-01-06T01:05:17;99252.75;;;18.66;37.21
19150;BME280;9707;49.158;8.632;2024-01-06T01:07:43;99257.44;;;18.64;36.97
19150;BME280;9707;49.158;8.632;2024-01-06T01:10:08;99267.22;;;18.65;37.11
19150;BME280;9707;49.158;8.632;2024-01-06T01:12:35;99265.53;;;18.64;36.79
19150;BME280;9707;49.158;8.632;2024-01-06T01:15:00;99269.19;;;18.63;37.21
19150;BME280;9707;49.158;8.632;2024-01-06T01:17:25;99276.31;;;18.64;36.74
19150;BME280;9707;49.158;8.632;2024-01-06T01:19:50;99273.75;;;18.62;37.10
19150;BME280;9707;49.158;8.632;2024-01-06T01:22:15;99272.88;;;18.62;37.58
19150;BME280;9707;49.158;8.632;2024-01-06T01:24:42;99272.88;;;18.62;37.75
19150;BME280;9707;49.158;8.632;2024-01-06T01:27:07;99279.13;;;18.62;37.50
19150;BME280;9707;49.158;8.632;2024-01-06T01:29:32;99287.22;;;18.62;37.60
19150;BME280;9707;49.158;8.632;2024-01-06T01:31:57;99292.63;;;18.62;37.61
19150;BME280;9707;49.158;8.632;2024-01-06T01:34:23;99293.47;;;18.63;37.19
19150;BME280;9707;49.158;8.632;2024-01-06T01:36:48;99303.41;;;18.62;37.18
19150;BME280;9707;49.158;8.632;2024-01-06T01:39:13;99302.53;;;18.62;37.12
19150;BME280;9707;49.158;8.632;2024-01-06T01:41:40;99308.81;;;18.62;37.17
19150;BME280;9707;49.158;8.632;2024-01-06T01:44:05;99314.31;;;18.61;37.22
19150;BME280;9707;49.158;8.632;2024-01-06T01:46:30;99316.91;;;18.62;37.40
19150;BME280;9707;49.158;8.632;2024-01-06T01:48:57;99310.63;;;18.62;37.81
19150;BME280;9707;49.158;8.632;2024-01-06T01:51:25;99316.91;;;18.62;37.28
19150;BME280;9707;49.158;8.632;2024-01-06T01:53:51;99321.41;;;18.62;36.94
19150;BME280;9707;49.158;8.632;2024-01-06T01:56:17;99317.88;;;18.61;37.03
19150;BME280;9707;49.158;8.632;2024-01-06T01:58:42;99319.72;;;18.61;37.04
19150;BME280;9707;49.158;8.632;2024-01-06T02:01:08;99327.81;;;18.61;36.80
19150;BME280;9707;49.158;8.632;2024-01-06T02:03:34;99329.94;;;18.57;37.25
19150;BME280;9707;49.158;8.632;2024-01-06T02:05:59;99321.84;;;18.57;37.19
19150;BME280;9707;49.158;8.632;2024-01-06T02:08:25;99326.25;;;18.58;37.31
19150;BME280;9707;49.158;8.632;2024-01-06T02:10:50;99326.38;;;18.57;37.30
19150;BME280;9707;49.158;8.632;2024-01-06T02:13:15;99326.38;;;18.57;37.40
19150;BME280;9707;49.158;8.632;2024-01-06T02:15:41;99334.47;;;18.57;37.09
19150;BME280;9707;49.158;8.632;2024-01-06T02:18:06;99330.06;;;18.56;37.19
19150;BME280;9707;49.158;8.632;2024-01-06T02:20:32;99338.16;;;18.56;37.50
19150;BME280;9707;49.158;8.632;2024-01-06T02:22:57;99338.16;;;18.56;37.00
19150;BME280;9707;49.158;8.632;2024-01-06T02:25:25;99341.84;;;18.55;36.98
19150;BME280;9707;49.158;8.632;2024-01-06T02:27:50;99340.13;;;18.54;36.92
19150;BME280;9707;49.158;8.632;2024-01-06T02:30:19;99349.19;;;18.53;36.92
19150;BME280;9707;49.158;8.632;2024-01-06T02:32:44;99355.59;;;18.52;36.75
19150;BME280;9707;49.158;8.632;2024-01-06T02:35:09;99356.56;;;18.51;36.43
19150;BME280;9707;49.158;8.632;2024-01-06T02:37:34;99355.88;;;18.49;36.80
19150;BME280;9707;49.158;8.632;2024-01-06T02:40:00;99361.25;;;18.49;37.20
19150;BME280;9707;49.158;8.632;2024-01-06T02:42:25;99364.78;;;18.49;37.22
19150;BME280;9707;49.158;8.632;2024-01-06T02:44:51;99370.19;;;18.49;37.01
19150;BME280;9707;49.158;8.632;2024-01-06T02:47:16;99371.06;;;18.50;36.98
19150;BME280;9707;49.158;8.632;2024-01-06T02:49:41;99364.78;;;18.49;36.70
19150;BME280;9707;49.158;8.632;2024-01-06T02:52:07;99370.06;;;18.51;36.84
19150;BME280;9707;49.158;8.632;2024-01-06T02:54:32;99373.75;;;18.50;36.89
19150;BME280;9707;49.158;8.632;2024-01-06T02:56:57;99373.75;;;18.50;37.11
19150;BME280;9707;49.158;8.632;2024-01-06T02:59:22;99370.19;;;18.49;36.62
19150;BME280;9707;49.158;8.632;2024-01-06T03:01:48;99372.88;;;18.49;36.92
19150;BME280;9707;49.158;8.632;2024-01-06T03:04:13;99374.75;;;18.49;36.93
19150;BME280;9707;49.158;8.632;2024-01-06T03:06:38;99374.75;;;18.49;36.70
19150;BME280;9707;49.158;8.632;2024-01-06T03:09:03;99372.03;;;18.49;36.81
19150;BME280;9707;49.158;8.632;2024-01-06T03:11:29;99372.16;;;18.47;36.81
19150;BME280;9707;49.158;8.632;2024-01-06T03:13:54;99373.00;;;18.48;36.47
19150;BME280;9707;49.158;8.632;2024-01-06T03:16:19;99377.69;;;18.46;36.50
19150;BME280;9707;49.158;8.632;2024-01-06T03:18:44;99385.06;;;18.44;36.49
19150;BME280;9707;49.158;8.632;2024-01-06T03:21:18;99383.22;;;18.44;36.49
19150;BME280;9707;49.158;8.632;2024-01-06T03:23:44;99383.22;;;18.44;36.63
19150;BME280;9707;49.158;8.632;2024-01-06T03:26:10;99382.38;;;18.44;36.46
19150;BME280;9707;49.158;8.632;2024-01-06T03:28:35;99387.75;;;18.44;36.61
19150;BME280;9707;49.158;8.632;2024-01-06T03:31:00;99385.06;;;18.44;36.51
19150;BME280;9707;49.158;8.632;2024-01-06T03:33:25;99387.75;;;18.44;36.73
19150;BME280;9707;49.158;8.632;2024-01-06T03:35:51;99393.16;;;18.44;36.85
19150;BME280;9707;49.158;8.632;2024-01-06T03:38:16;99396.56;;;18.46;36.81
19150;BME280;9707;49.158;8.632;2024-01-06T03:40:41;99397.44;;;18.46;36.92
19150;BME280;9707;49.158;8.632;2024-01-06T03:43:06;99393.88;;;18.46;36.80
19150;BME280;9707;49.158;8.632;2024-01-06T03:45:32;99399.25;;;18.46;36.82
19150;BME280;9707;49.158;8.632;2024-01-06T03:47:57;99392.03;;;18.46;36.62
19150;BME280;9707;49.158;8.632;2024-01-06T03:50:22;99385.78;;;18.46;36.70
19150;BME280;9707;49.158;8.632;2024-01-06T03:52:47;99384.91;;;18.45;36.46
19150;BME280;9707;49.158;8.632;2024-01-06T03:55:13;99389.47;;;18.45;36.47
19150;BME280;9707;49.158;8.632;2024-01-06T03:57:39;99386.03;;;18.43;36.59
19150;BME280;9707;49.158;8.632;2024-01-06T04:00:06;99388.03;;;18.41;36.56
19150;BME280;9707;49.158;8.632;2024-01-06T04:02:32;99387.31;;;18.39;36.38
19150;BME280;9707;49.158;8.632;2024-01-06T04:04:57;99390.00;;;18.39;36.62
19150;BME280;9707;49.158;8.632;2024-01-06T04:07:23;99388.28;;;18.38;36.58
19150;BME280;9707;49.158;8.632;2024-01-06T04:09:48;99386.56;;;18.37;36.68
19150;BME280;9707;49.158;8.632;2024-01-06T04:12:13;99388.44;;;18.36;36.40
19150;BME280;9707;49.158;8.632;2024-01-06T04:14:38;99379.47;;;18.36;36.41
19150;BME280;9707;49.158;8.632;2024-01-06T04:17:04;99386.84;;;18.34;36.63
19150;BME280;9707;49.158;8.632;2024-01-06T04:19:29;99379.72;;;18.33;36.59
19150;BME280;9707;49.158;8.632;2024-01-06T04:21:54;99379.72;;;18.33;36.57
19150;BME280;9707;49.158;8.632;2024-01-06T04:24:20;99381.59;;;18.32;36.34
19150;BME280;9707;49.158;8.632;2024-01-06T04:26:45;99385.13;;;18.33;36.64
19150;BME280;9707;49.158;8.632;2024-01-06T04:29:11;99378.88;;;18.32;36.54
19150;BME280;9707;49.158;8.632;2024-01-06T04:31:37;99369.91;;;18.32;36.64
19150;BME280;9707;49.158;8.632;2024-01-06T04:34:02;99372.72;;;18.30;36.53
19150;BME280;9707;49.158;8.632;2024-01-06T04:36:28;99369.06;;;18.31;36.24
19150;BME280;9707;49.158;8.632;2024-01-06T04:38:53;99366.50;;;18.30;36.46
19150;BME280;9707;49.158;8.632;2024-01-06T04:41:19;99356.69;;;18.29;36.05
19150;BME280;9707;49.158;8.632;2024-01-06T04:43:44;99348.63;;;18.29;35.82
19150;BME280;9707;49.158;8.632;2024-01-06T04:46:09;99348.88;;;18.26;36.01
19150;BME280;9707;49.158;8.632;2024-01-06T04:48:35;99355.25;;;18.25;36.27
19150;BME280;9707;49.158;8.632;2024-01-06T04:51:00;99359.78;;;18.24;36.09
19150;BME280;9707;49.158;8.632;2024-01-06T04:53:28;99365.16;;;18.24;36.12
19150;BME280;9707;49.158;8.632;2024-01-06T04:55:53;99366.16;;;18.23;36.60
19150;BME280;9707;49.158;8.632;2024-01-06T04:58:18;99367.88;;;18.24;36.62
19150;BME280;9707;49.158;8.632;2024-01-06T05:00:44;99368.03;;;18.23;37.07
19150;BME280;9707;49.158;8.632;2024-01-06T05:03:09;99362.34;;;18.26;37.13
19150;BME280;9707;49.158;8.632;2024-01-06T05:05:34;99371.19;;;18.28;36.92
19150;BME280;9707;49.158;8.632;2024-01-06T05:07:59;99371.00;;;18.29;36.77
19150;BME280;9707;49.158;8.632;2024-01-06T05:10:25;99369.19;;;18.30;36.71
19150;BME280;9707;49.158;8.632;2024-01-06T05:12:50;99368.31;;;18.29;36.21
19150;BME280;9707;49.158;8.632;2024-01-06T05:15:15;99379.97;;;18.30;36.17
19150;BME280;9707;49.158;8.632;2024-01-06T05:17:41;99390.03;;;18.28;36.23
19150;BME280;9707;49.158;8.632;2024-01-06T05:20:06;99392.75;;;18.28;36.28
19150;BME280;9707;49.158;8.632;2024-01-06T05:22:32;99395.44;;;18.28;36.23
19150;BME280;9707;49.158;8.632;2024-01-06T05:24:57;99395.44;;;18.28;36.03
19150;BME280;9707;49.158;8.632;2024-01-06T05:27:22;99392.75;;;18.28;36.38
19150;BME280;9707;49.158;8.632;2024-01-06T05:29:48;99390.16;;;18.26;36.53
19150;BME280;9707;49.158;8.632;2024-01-06T05:32:15;99394.44;;;18.29;36.49
19150;BME280;9707;49.158;8.632;2024-01-06T05:34:40;99387.19;;;18.29;36.51
19150;BME280;9707;49.158;8.632;2024-01-06T05:37:05;99380.97;;;18.29;36.06
19150;BME280;9707;49.158;8.632;2024-01-06T05:39:31;99392.75;;;18.28;36.25
19150;BME280;9707;49.158;8.632;2024-01-06T05:41:56;99392.75;;;18.28;36.49
19150;BME280;9707;49.158;8.632;2024-01-06T05:44:22;99391.75;;;18.29;36.40
19150;BME280;9707;49.158;8.632;2024-01-06T05:46:47;99399.84;;;18.29;36.58
19150;BME280;9707;49.158;8.632;2024-01-06T05:49:12;99401.53;;;18.30;36.31
19150;BME280;9707;49.158;8.632;2024-01-06T05:51:44;99399.84;;;18.29;36.21
19150;BME280;9707;49.158;8.632;2024-01-06T05:54:09;99407.78;;;18.30;36.45
19150;BME280;9707;49.158;8.632;2024-01-06T05:56:34;99406.94;;;18.30;36.17
19150;BME280;9707;49.158;8.632;2024-01-06T05:59:00;99410.63;;;18.29;36.48
19150;BME280;9707;49.158;8.632;2024-01-06T06:01:25;99406.94;;;18.30;36.48
19150;BME280;9707;49.158;8.632;2024-01-06T06:03:50;99401.53;;;18.30;36.23
19150;BME280;9707;49.158;8.632;2024-01-06T06:06:15;99405.06;;;18.30;36.15
19150;BME280;9707;49.158;8.632;2024-01-06T06:08:42;99413.31;;;18.29;36.58
19150;BME280;9707;49.158;8.632;2024-01-06T06:11:07;99416.00;;;18.29;36.27
19150;BME280;9707;49.158;8.632;2024-01-06T06:13:40;99425.94;;;18.28;36.34
19150;BME280;9707;49.158;8.632;2024-01-06T06:16:06;99428.50;;;18.30;35.89
19150;BME280;9707;49.158;8.632;2024-01-06T06:18:32;99432.19;;;18.29;36.35
19150;BME280;9707;49.158;8.632;2024-01-06T06:20:58;99430.31;;;18.29;36.35
19150;BME280;9707;49.158;8.632;2024-01-06T06:23:23;99435.72;;;18.29;36.19
19150;BME280;9707;49.158;8.632;2024-01-06T06:25:49;99443.81;;;18.29;36.41
19150;BME280;9707;49.158;8.632;2024-01-06T06:28:14;99451.06;;;18.29;36.24
19150;BME280;9707;49.158;8.632;2024-01-06T06:30:39;99452.88;;;18.28;36.49
19150;BME280;9707;49.158;8.632;2024-01-06T06:33:04;99456.44;;;18.29;36.39
19150;BME280;9707;49.158;8.632;2024-01-06T06:35:30;99458.16;;;18.30;36.10
19150;BME280;9707;49.158;8.632;2024-01-06T06:37:55;99453.75;;;18.29;36.06
19150;BME280;9707;49.158;8.632;2024-01-06T06:40:20;99457.44;;;18.28;36.44
19150;BME280;9707;49.158;8.632;2024-01-06T06:42:45;99461.09;;;18.27;36.21
19150;BME280;9707;49.158;8.632;2024-01-06T06:45:11;99466.47;;;18.27;36.17
19150;BME280;9707;49.158;8.632;2024-01-06T06:47:37;99459.38;;;18.26;36.31
19150;BME280;9707;49.158;8.632;2024-01-06T06:50:02;99477.28;;;18.27;36.22
19150;BME280;9707;49.158;8.632;2024-01-06T06:52:27;99488.06;;;18.27;36.41
19150;BME280;9707;49.158;8.632;2024-01-06T06:54:53;99482.66;;;18.27;36.25
19150;BME280;9707;49.158;8.632;2024-01-06T06:57:18;99480.94;;;18.26;36.21
19150;BME280;9707;49.158;8.632;2024-01-06T06:59:44;99486.34;;;18.26;35.83
19150;BME280;9707;49.158;8.632;2024-01-06T07:02:09;99484.66;;;18.25;36.49
19150;BME280;9707;49.158;8.632;2024-01-06T07:04:35;99490.16;;;18.23;36.00
19150;BME280;9707;49.158;8.632;2024-01-06T07:07:00;99486.63;;;18.23;36.29
19150;BME280;9707;49.158;8.632;2024-01-06T07:09:25;99490.16;;;18.23;36.14
19150;BME280;9707;49.158;8.632;2024-01-06T07:11:50;99499.13;;;18.24;36.11
19150;BME280;9707;49.158;8.632;2024-01-06T07:14:16;99492.84;;;18.23;36.13
19150;BME280;9707;49.158;8.632;2024-01-06T07:16:42;99501.81;;;18.24;36.31
19150;BME280;9707;49.158;8.632;2024-01-06T07:19:07;99504.50;;;18.24;35.98
19150;BME280;9707;49.158;8.632;2024-01-06T07:21:32;99509.91;;;18.24;36.08
19150;BME280;9707;49.158;8.632;2024-01-06T07:23:57;99508.19;;;18.23;36.28
19150;BME280;9707;49.158;8.632;2024-01-06T07:26:23;99510.88;;;18.23;36.19
19150;BME280;9707;49.158;8.632;2024-01-06T07:28:48;99512.59;;;18.24;36.09
19150;BME280;9707;49.158;8.632;2024-01-06T07:31:14;99514.41;;;18.23;36.21
19150;BME280;9707;49.158;8.632;2024-01-06T07:33:39;99517.97;;;18.24;36.20
19150;BME280;9707;49.158;8.632;2024-01-06T07:36:05;99522.38;;;18.25;35.97
19150;BME280;9707;49.158;8.632;2024-01-06T07:38:30;99520.69;;;18.24;36.22
19150;BME280;9707;49.158;8.632;2024-01-06T07:40:56;99526.06;;;18.24;35.93
19150;BME280;9707;49.158;8.632;2024-01-06T07:43:21;99530.47;;;18.25;36.18
19150;BME280;9707;49.158;8.632;2024-01-06T07:45:46;99534.88;;;18.26;36.10
19150;BME280;9707;49.158;8.632;2024-01-06T07:48:12;99535.00;;;18.24;36.09
19150;BME280;9707;49.158;8.632;2024-01-06T07:50:37;99529.47;;;18.26;35.96
19150;BME280;9707;49.158;8.632;2024-01-06T07:53:03;99532.44;;;18.23;35.96
19150;BME280;9707;49.158;8.632;2024-01-06T07:55:28;99536.84;;;18.24;36.17
19150;BME280;9707;49.158;8.632;2024-01-06T07:57:54;99542.25;;;18.24;35.98
19150;BME280;9707;49.158;8.632;2024-01-06T08:00:19;99538.69;;;18.23;36.06
19150;BME280;9707;49.158;8.632;2024-01-06T08:02:44;99552.03;;;18.25;36.21
19150;BME280;9707;49.158;8.632;2024-01-06T08:05:10;99551.03;;;18.26;36.21
19150;BME280;9707;49.158;8.632;2024-01-06T08:07:35;99551.03;;;18.26;36.33
19150;BME280;9707;49.158;8.632;2024-01-06T08:10:01;99557.31;;;18.26;36.17
19150;BME280;9707;49.158;8.632;2024-01-06T08:12:30;99551.91;;;18.26;35.96
19150;BME280;9707;49.158;8.632;2024-01-06T08:14:55;99559.00;;;18.27;36.28
19150;BME280;9707;49.158;8.632;2024-01-06T08:17:20;99560.84;;;18.27;36.00
19150;BME280;9707;49.158;8.632;2024-01-06T08:19:45;99560.00;;;18.26;36.29
19150;BME280;9707;49.158;8.632;2024-01-06T08:22:14;99570.78;;;18.26;36.15
19150;BME280;9707;49.158;8.632;2024-01-06T08:24:39;99562.69;;;18.26;36.04
19150;BME280;9707;49.158;8.632;2024-01-06T08:27:05;99568.09;;;18.26;36.25
19150;BME280;9707;49.158;8.632;2024-01-06T08:29:30;99568.94;;;18.27;35.88
19150;BME280;9707;49.158;8.632;2024-01-06T08:31:56;99569.78;;;18.27;36.35
19150;BME280;9707;49.158;8.632;2024-01-06T08:34:21;99581.44;;;18.28;36.19
19150;BME280;9707;49.158;8.632;2024-01-06T08:36:47;99583.28;;;18.27;36.15
19150;BME280;9707;49.158;8.632;2024-01-06T08:39:12;99580.56;;;18.27;36.13
19150;BME280;9707;49.158;8.632;2024-01-06T08:41:38;99597.75;;;18.26;35.96
19150;BME280;9707;49.158;8.632;2024-01-06T08:44:03;99595.03;;;18.26;36.10
19150;BME280;9707;49.158;8.632;2024-01-06T08:46:29;99599.56;;;18.26;36.28
19150;BME280;9707;49.158;8.632;2024-01-06T08:48:55;99595.88;;;18.27;36.30
19150;BME280;9707;49.158;8.632;2024-01-06T08:51:21;99597.75;;;18.26;36.47
19150;BME280;9707;49.158;8.632;2024-01-06T08:53:46;99605.81;;;18.26;36.33
19150;BME280;9707;49.158;8.632;2024-01-06T08:56:11;99604.97;;;18.26;36.13
19150;BME280;9707;49.158;8.632;2024-01-06T08:58:36;99620.28;;;18.25;36.37
19150;BME280;9707;49.158;8.632;2024-01-06T09:01:02;99611.34;;;18.25;36.24
19150;BME280;9707;49.158;8.632;2024-01-06T09:03:27;99609.50;;;18.25;36.31
19150;BME280;9707;49.158;8.632;2024-01-06T09:05:54;99605.06;;;18.24;36.54
19150;BME280;9707;49.158;8.632;2024-01-06T09:08:20;99601.53;;;18.24;36.59
19150;BME280;9707;49.158;8.632;2024-01-06T09:10:45;99606.06;;;18.23;36.77
19150;BME280;9707;49.158;8.632;2024-01-06T09:13:10;99609.63;;;18.24;37.04
19150;BME280;9707;49.158;8.632;2024-01-06T09:15:36;99614.03;;;18.25;36.62
19150;BME280;9707;49.158;8.632;2024-01-06T09:18:01;99606.94;;;18.24;36.95
19150;BME280;9707;49.158;8.632;2024-01-06T09:20:27;99605.94;;;18.25;37.11
19150;BME280;9707;49.158;8.632;2024-01-06T09:22:53;99612.06;;;18.27;36.92
19150;BME280;9707;49.158;8.632;2024-01-06T09:25:18;99612.06;;;18.27;36.94
19150;BME280;9707;49.158;8.632;2024-01-06T09:27:43;99613.81;;;18.28;37.33
19150;BME280;9707;49.158;8.632;2024-01-06T09:30:09;99620.91;;;18.29;37.29
19150;BME280;9707;49.158;8.632;2024-01-06T09:32:34;99621.72;;;18.29;37.00
19150;BME280;9707;49.158;8.632;2024-01-06T09:34:59;99624.44;;;18.29;37.33
19150;BME280;9707;49.158;8.632;2024-01-06T09:37:24;99622.59;;;18.30;37.12
19150;BME280;9707;49.158;8.632;2024-01-06T09:39:50;99631.53;;;18.30;37.12
19150;BME280;9707;49.158;8.632;2024-01-06T09:42:16;99628.84;;;18.30;37.06
19150;BME280;9707;49.158;8.632;2024-01-06T09:44:41;99635.09;;;18.31;36.96
19150;BME280;9707;49.158;8.632;2024-01-06T09:47:09;99632.41;;;18.31;37.17
19150;BME280;9707;49.158;8.632;2024-01-06T09:49:38;99629.69;;;18.31;37.26
19150;BME280;9707;49.158;8.632;2024-01-06T09:52:10;99626.28;;;18.29;36.96
19150;BME280;9707;49.158;8.632;2024-01-06T09:54:41;99628.00;;;18.30;37.40
19150;BME280;9707;49.158;8.632;2024-01-06T09:57:12;99626.00;;;18.32;37.36
19150;BME280;9707;49.158;8.632;2024-01-06T09:59:37;99640.28;;;18.34;37.23
19150;BME280;9707;49.158;8.632;2024-01-06T10:02:04;99641.13;;;18.34;37.24
19150;BME280;9707;49.158;8.632;2024-01-06T10:04:29;99642.00;;;18.35;37.35
19150;BME280;9707;49.158;8.632;2024-01-06T10:06:54;99646.50;;;18.34;37.23
19150;BME280;9707;49.158;8.632;2024-01-06T10:09:26;99651.78;;;18.36;37.22
19150;BME280;9707;49.158;8.632;2024-01-06T10:11:55;99646.50;;;18.34;37.35
19150;BME280;9707;49.158;8.632;2024-01-06T10:14:20;99649.09;;;18.36;37.28
19150;BME280;9707;49.158;8.632;2024-01-06T10:16:46;99640.00;;;18.37;37.38
19150;BME280;9707;49.158;8.632;2024-01-06T10:19:14;99647.09;;;18.38;37.35
19150;BME280;9707;49.158;8.632;2024-01-06T10:21:39;99647.09;;;18.38;37.11
19150;BME280;9707;49.158;8.632;2024-01-06T10:24:07;99639.88;;;18.38;37.39
19150;BME280;9707;49.158;8.632;2024-01-06T10:26:33;99640.75;;;18.39;37.47
19150;BME280;9707;49.158;8.632;2024-01-06T10:28:58;99645.16;;;18.40;37.23
19150;BME280;9707;49.158;8.632;2024-01-06T10:31:25;99634.38;;;18.40;37.15
19150;BME280;9707;49.158;8.632;2024-01-06T10:33:50;99640.75;;;18.39;37.28
19150;BME280;9707;49.158;8.632;2024-01-06T10:36:16;99641.47;;;18.41;37.37
19150;BME280;9707;49.158;8.632;2024-01-06T10:38:42;99639.66;;;18.41;37.10
19150;BME280;9707;49.158;8.632;2024-01-06T10:41:07;99642.34;;;18.41;37.37
19150;BME280;9707;49.158;8.632;2024-01-06T10:43:35;99644.88;;;18.43;37.44
19150;BME280;9707;49.158;8.632;2024-01-06T10:46:07;99644.88;;;18.43;37.22
19150;BME280;9707;49.158;8.632;2024-01-06T10:48:36;99644.88;;;18.43;37.34
19150;BME280;9707;49.158;8.632;2024-01-06T10:51:03;99645.75;;;18.43;37.26
19150;BME280;9707;49.158;8.632;2024-01-06T10:53:32;99645.66;;;18.45;37.27
19150;BME280;9707;49.158;8.632;2024-01-06T10:55:58;99648.34;;;18.45;37.11
19150;BME280;9707;49.158;8.632;2024-01-06T10:58:24;99645.66;;;18.45;37.32
19150;BME280;9707;49.158;8.632;2024-01-06T11:00:50;99648.34;;;18.45;37.11
19150;BME280;9707;49.158;8.632;2024-01-06T11:03:17;99653.72;;;18.45;37.14
19150;BME280;9707;49.158;8.632;2024-01-06T11:05:43;99653.72;;;18.45;37.11
19150;BME280;9707;49.158;8.632;2024-01-06T11:08:08;99652.03;;;18.44;37.17
19150;BME280;9707;49.158;8.632;2024-01-06T11:10:36;99652.84;;;18.44;37.50
19150;BME280;9707;49.158;8.632;2024-01-06T11:13:08;99642.06;;;18.44;37.37
19150;BME280;9707;49.158;8.632;2024-01-06T11:18:39;99647.47;;;18.44;37.34
19150;BME280;9707;49.158;8.632;2024-01-06T11:23:40;99641.25;;;18.44;37.11
19150;BME280;9707;49.158;8.632;2024-01-06T11:26:09;99638.53;;;18.44;37.07
19150;BME280;9707;49.158;8.632;2024-01-06T11:28:47;99631.28;;;18.44;37.03
19150;BME280;9707;49.158;8.632;2024-01-06T11:31:13;99620.63;;;18.43;37.26
19150;BME280;9707;49.158;8.632;2024-01-06T11:33:42;99627.75;;;18.44;36.84
19150;BME280;9707;49.158;8.632;2024-01-06T11:36:09;99637.56;;;18.45;37.10
19150;BME280;9707;49.158;8.632;2024-01-06T11:38:38;99631.28;;;18.44;36.92
19150;BME280;9707;49.158;8.632;2024-01-06T11:41:03;99631.28;;;18.44;37.05
19150;BME280;9707;49.158;8.632;2024-01-06T11:43:34;99634.84;;;18.45;37.12
19150;BME280;9707;49.158;8.632;2024-01-06T11:46:00;99638.38;;;18.45;37.19
19150;BME280;9707;49.158;8.632;2024-01-06T11:48:29;99622.09;;;18.47;37.27
19150;BME280;9707;49.158;8.632;2024-01-06T11:50:55;99631.06;;;18.47;37.24
19150;BME280;9707;49.158;8.632;2024-01-06T11:53:21;99621.97;;;18.48;36.90
19150;BME280;9707;49.158;8.632;2024-01-06T11:55:48;99632.75;;;18.48;36.78
19150;BME280;9707;49.158;8.632;2024-01-06T11:58:16;99634.47;;;18.49;37.26
19150;BME280;9707;49.158;8.632;2024-01-06T12:00:41;99628.06;;;18.50;36.97
19150;BME280;9707;49.158;8.632;2024-01-06T12:03:07;99628.22;;;18.49;36.95
19150;BME280;9707;49.158;8.632;2024-01-06T12:05:32;99624.41;;;18.51;36.88
19150;BME280;9707;49.158;8.632;2024-01-06T12:08:02;99615.47;;;18.51;36.98
19150;BME280;9707;49.158;8.632;2024-01-06T12:10:29;99615.47;;;18.51;36.96
19150;BME280;9707;49.158;8.632;2024-01-06T12:15:22;99613.47;;;18.53;36.92
19150;BME280;9707;49.158;8.632;2024-01-06T12:17:47;99609.81;;;18.54;37.09
19150;BME280;9707;49.158;8.632;2024-01-06T12:20:13;99614.34;;;18.53;37.21
19150;BME280;9707;49.158;8.632;2024-01-06T12:22:38;99607.84;;;18.56;36.92
19150;BME280;9707;49.158;8.632;2024-01-06T12:25:04;99607.84;;;18.56;36.91
19150;BME280;9707;49.158;8.632;2024-01-06T12:27:31;99607.84;;;18.56;36.89
19150;BME280;9707;49.158;8.632;2024-01-06T12:29:56;99607.84;;;18.56;37.11
19150;BME280;9707;49.158;8.632;2024-01-06T12:32:22;99612.25;;;18.57;37.30
19150;BME280;9707;49.158;8.632;2024-01-06T12:34:48;99610.41;;;18.57;36.92
19150;BME280;9707;49.158;8.632;2024-01-06T12:37:13;99606.72;;;18.58;36.82
19150;BME280;9707;49.158;8.632;2024-01-06T12:39:40;99611.25;;;18.58;36.85
19150;BME280;9707;49.158;8.632;2024-01-06T12:42:07;99611.25;;;18.58;36.71
19150;BME280;9707;49.158;8.632;2024-01-06T12:44:34;99611.13;;;18.59;36.98
19150;BME280;9707;49.158;8.632;2024-01-06T12:47:02;99614.69;;;18.60;36.96
19150;BME280;9707;49.158;8.632;2024-01-06T12:49:28;99606.63;;;18.60;37.12
19150;BME280;9707;49.158;8.632;2024-01-06T12:51:53;99611.88;;;18.61;37.07
19150;BME280;9707;49.158;8.632;2024-01-06T12:54:19;99610.91;;;18.62;36.89
19150;BME280;9707;49.158;8.632;2024-01-06T12:56:44;99615.41;;;18.62;37.10
19150;BME280;9707;49.158;8.632;2024-01-06T12:59:09;99623.50;;;18.62;36.91
19150;BME280;9707;49.158;8.632;2024-01-06T13:01:36;99614.59;;;18.61;36.80
19150;BME280;9707;49.158;8.632;2024-01-06T13:04:01;99618.13;;;18.62;37.29
19150;BME280;9707;49.158;8.632;2024-01-06T13:06:26;99624.25;;;18.64;37.01
19150;BME280;9707;49.158;8.632;2024-01-06T13:08:52;99617.13;;;18.63;36.81
19150;BME280;9707;49.158;8.632;2024-01-06T13:11:18;99623.38;;;18.63;37.01